createdAt,value
2023-02-23T00:00:47.759Z,5.50
2023-02-23T00:03:19.706Z,6.05
2023-02-23T00:05:50.671Z,6.45
2023-02-23T00:08:23.986Z,5.80
2023-02-23T00:10:58.910Z,4.71
2023-02-23T00:13:31.961Z,4.54
2023-02-23T00:16:06.060Z,5.41
2023-02-23T00:18:45.478Z,6.07
2023-02-23T00:21:16.866Z,6.52
2023-02-23T00:23:51.379Z,5.72
2023-02-23T00:26:24.157Z,4.70
2023-02-23T00:28:55.548Z,4.97
2023-02-23T00:31:27.496Z,5.50
2023-02-23T00:34:00.132Z,5.86
2023-02-23T00:36:31.541Z,6.19
2023-02-23T00:39:06.523Z,6.36
2023-02-23T00:41:37.212Z,5.33
2023-02-23T00:44:11.119Z,4.55
2023-02-23T00:46:42.475Z,5.19
2023-02-23T00:49:14.486Z,5.92
2023-02-23T00:51:45.264Z,6.45
2023-02-23T00:54:17.400Z,5.66
2023-02-23T00:56:48.976Z,4.57
2023-02-23T00:59:20.944Z,4.69
2023-02-23T01:01:53.014Z,5.36
2023-02-23T01:04:25.286Z,5.90
2023-02-23T01:06:56.245Z,6.32
2023-02-23T01:09:29.750Z,5.74
2023-02-23T01:12:02.088Z,4.57
2023-02-23T01:14:33.171Z,4.28
2023-02-23T01:17:03.823Z,5.05
2023-02-23T01:19:35.216Z,5.56
2023-02-23T01:22:07.484Z,5.67
2023-02-23T01:24:39.123Z,6.03
2023-02-23T01:27:09.999Z,6.71
2023-02-23T01:29:40.930Z,5.97
2023-02-23T01:32:11.620Z,4.59
2023-02-23T01:34:42.668Z,4.16
2023-02-23T01:37:13.294Z,4.72
2023-02-23T01:39:44.246Z,5.46
2023-02-23T01:42:15.286Z,5.90
2023-02-23T01:45:02.600Z,6.02
2023-02-23T01:47:33.329Z,4.99
2023-02-23T01:50:05.204Z,4.25
2023-02-23T01:52:37.216Z,4.86
2023-02-23T01:55:13.266Z,5.36
2023-02-23T01:57:43.780Z,5.83
2023-02-23T02:00:15.336Z,5.69
2023-02-23T02:02:45.815Z,4.81
2023-02-23T02:05:18.502Z,4.13
2023-02-23T02:07:59.299Z,4.62
2023-02-23T02:10:46.600Z,5.21
2023-02-23T02:13:22.759Z,5.84
2023-02-23T02:16:21.865Z,5.84
2023-02-23T02:19:06.605Z,4.77
2023-02-23T02:21:54.237Z,3.99
2023-02-23T02:24:38.346Z,4.90
2023-02-23T02:27:27.037Z,5.49
2023-02-23T02:30:15.223Z,6.03
2023-02-23T02:33:03.666Z,5.53
2023-02-23T02:35:52.072Z,4.06
2023-02-23T02:38:30.098Z,4.09
2023-02-23T02:41:05.830Z,5.05
2023-02-23T02:43:40.803Z,5.51
2023-02-23T02:46:14.835Z,5.93
2023-02-23T02:48:49.242Z,5.33
2023-02-23T02:51:23.678Z,4.04
2023-02-23T02:53:59.170Z,4.43
2023-02-23T02:56:31.237Z,5.28
2023-02-23T02:59:04.108Z,5.48
2023-02-23T03:01:51.391Z,5.71
2023-02-23T03:04:41.418Z,5.70
2023-02-23T03:07:35.638Z,4.26
2023-02-23T03:10:31.669Z,3.45
2023-02-23T03:13:24.286Z,4.24
2023-02-23T03:16:19.635Z,4.95
2023-02-23T03:19:13.868Z,5.41
2023-02-23T03:22:07.436Z,5.64
2023-02-23T03:24:58.239Z,4.22
2023-02-23T03:27:56.209Z,3.57
2023-02-23T03:30:47.163Z,4.66
2023-02-23T03:33:39.166Z,5.39
2023-02-23T03:36:29.954Z,5.64
2023-02-23T03:39:20.590Z,5.73
2023-02-23T03:42:09.890Z,4.25
2023-02-23T03:45:00.105Z,3.97
2023-02-23T03:47:50.572Z,4.98
2023-02-23T03:50:41.098Z,5.43
2023-02-23T03:53:30.882Z,5.84
2023-02-23T03:56:20.662Z,4.81
2023-02-23T03:59:10.816Z,3.66
2023-02-23T04:01:59.320Z,4.25
2023-02-23T04:04:49.592Z,5.13
2023-02-23T04:07:38.570Z,5.72
2023-02-23T04:10:29.092Z,5.17
2023-02-23T04:13:16.289Z,3.80
2023-02-23T04:15:48.218Z,3.63
2023-02-23T04:18:22.790Z,4.43
2023-02-23T04:20:53.529Z,5.10
2023-02-23T04:23:24.353Z,5.48
2023-02-23T04:25:55.671Z,4.64
2023-02-23T04:28:27.988Z,3.56
2023-02-23T04:30:59.206Z,3.05
2023-02-23T04:33:30.104Z,3.86
2023-02-23T04:36:01.275Z,4.52
2023-02-23T04:38:31.993Z,5.17
2023-02-23T04:41:02.826Z,5.68
2023-02-23T04:43:33.764Z,5.20
2023-02-23T04:46:04.783Z,4.01
2023-02-23T04:48:35.555Z,3.09
2023-02-23T04:51:06.681Z,3.40
2023-02-23T04:53:37.318Z,4.41
2023-02-23T04:56:08.706Z,5.07
2023-02-23T04:58:39.535Z,5.46
2023-02-23T05:01:10.783Z,5.45
2023-02-23T05:03:41.679Z,4.33
2023-02-23T05:06:14.051Z,3.38
2023-02-23T05:08:45.973Z,3.84
2023-02-23T05:11:17.099Z,4.51
2023-02-23T05:13:48.603Z,5.13
2023-02-23T05:16:19.646Z,4.81
2023-02-23T05:18:51.043Z,3.66
2023-02-23T05:21:22.136Z,3.36
2023-02-23T05:23:53.076Z,4.21
2023-02-23T05:26:24.423Z,4.85
2023-02-23T05:28:57.344Z,5.07
2023-02-23T05:31:28.126Z,5.22
2023-02-23T05:33:58.977Z,4.27
2023-02-23T05:36:30.100Z,3.28
2023-02-23T05:39:00.955Z,3.66
2023-02-23T05:41:32.199Z,4.30
2023-02-23T05:44:03.234Z,4.97
2023-02-23T05:46:34.009Z,5.44
2023-02-23T05:49:05.218Z,4.24
2023-02-23T05:51:36.370Z,3.29
2023-02-23T05:54:07.398Z,3.75
2023-02-23T05:56:38.455Z,4.69
2023-02-23T05:59:09.373Z,5.01
2023-02-23T06:01:40.626Z,5.32
2023-02-23T06:04:11.392Z,4.79
2023-02-23T06:06:42.409Z,3.61
2023-02-23T06:09:13.962Z,3.32
2023-02-23T06:11:44.838Z,4.24
2023-02-23T06:14:16.809Z,5.07
2023-02-23T06:16:49.124Z,5.76
2023-02-23T06:19:20.810Z,5.91
2023-02-23T06:21:53.460Z,4.68
2023-02-23T06:24:25.157Z,3.56
2023-02-23T06:26:56.172Z,3.43
2023-02-23T06:29:27.085Z,4.38
2023-02-23T06:32:00.674Z,5.28
2023-02-23T06:34:32.231Z,5.68
2023-02-23T06:37:03.491Z,4.90
2023-02-23T06:39:34.624Z,3.88
2023-02-23T06:42:05.483Z,4.00
2023-02-23T06:44:37.632Z,5.04
2023-02-23T06:47:09.491Z,5.69
2023-02-23T06:49:40.848Z,5.69
2023-02-23T06:52:13.829Z,4.70
2023-02-23T06:54:44.665Z,4.05
2023-02-23T06:57:15.391Z,4.84
2023-02-23T06:59:47.020Z,5.75
2023-02-23T07:02:17.993Z,6.26
2023-02-23T07:04:50.042Z,5.54
2023-02-23T07:07:21.539Z,4.50
2023-02-23T07:09:52.446Z,4.07
2023-02-23T07:12:23.520Z,5.07
2023-02-23T07:14:54.529Z,5.96
2023-02-23T07:17:25.374Z,6.63
2023-02-23T07:19:56.321Z,6.43
2023-02-23T07:22:30.411Z,5.36
2023-02-23T07:25:01.478Z,4.39
2023-02-23T07:27:32.371Z,4.19
2023-02-23T07:30:04.076Z,5.33
2023-02-23T07:32:34.999Z,6.45
2023-02-23T07:35:06.364Z,6.85
2023-02-23T07:37:37.863Z,5.82
2023-02-23T07:40:10.386Z,4.79
2023-02-23T07:42:41.094Z,4.33
2023-02-23T07:45:14.490Z,5.23
2023-02-23T07:47:45.250Z,6.14
2023-02-23T07:54:06.337Z,6.83
2023-02-23T07:56:38.815Z,5.73
2023-02-23T07:59:09.641Z,5.09
2023-02-23T08:01:40.346Z,5.91
2023-02-23T08:04:11.489Z,6.87
2023-02-23T08:06:42.265Z,7.24
2023-02-23T08:09:13.678Z,6.29
2023-02-23T08:11:44.395Z,5.33
2023-02-23T08:14:15.989Z,5.08
2023-02-23T08:16:46.951Z,6.23
2023-02-23T08:19:17.986Z,7.36
2023-02-23T08:21:48.803Z,7.89
2023-02-23T08:24:20.637Z,7.03
2023-02-23T08:26:51.711Z,6.06
2023-02-23T08:29:24.021Z,5.42
2023-02-23T08:31:56.465Z,6.06
2023-02-23T08:34:27.701Z,7.33
2023-02-23T08:36:58.597Z,7.94
2023-02-23T08:39:29.910Z,7.23
2023-02-23T08:42:00.715Z,6.43
2023-02-23T08:44:33.912Z,5.80
2023-02-23T08:47:05.118Z,6.34
2023-02-23T08:49:36.646Z,7.51
2023-02-23T08:52:07.939Z,8.11
2023-02-23T08:54:38.919Z,7.25
2023-02-23T08:57:12.228Z,6.48
2023-02-23T08:59:41.978Z,5.99
2023-02-23T09:02:13.715Z,6.72
2023-02-23T09:04:44.996Z,7.89
2023-02-23T09:07:17.069Z,8.47
2023-02-23T09:09:48.443Z,7.78
2023-02-23T09:12:19.444Z,7.04
2023-02-23T09:14:51.626Z,6.46
2023-02-23T09:17:26.457Z,6.35
2023-02-23T09:19:57.880Z,7.55
2023-02-23T09:22:29.050Z,8.51
2023-02-23T09:25:00.170Z,8.03
2023-02-23T09:27:31.246Z,7.32
2023-02-23T09:30:07.928Z,6.76
2023-02-23T09:32:39.040Z,6.61
2023-02-23T09:35:10.736Z,7.71
2023-02-23T09:37:41.825Z,8.97
2023-02-23T09:40:16.074Z,9.00
2023-02-23T09:42:50.836Z,8.19
2023-02-23T09:45:26.922Z,7.48
2023-02-23T09:48:06.682Z,7.00
2023-02-23T09:50:39.111Z,6.72
2023-02-23T09:53:14.385Z,7.55
2023-02-23T09:55:46.645Z,8.70
2023-02-23T09:58:21.191Z,8.26
2023-02-23T10:00:57.036Z,7.64
2023-02-23T10:03:30.777Z,7.26
2023-02-23T10:06:10.412Z,7.03
2023-02-23T10:08:46.299Z,7.85
2023-02-23T10:11:22.628Z,9.36
2023-02-23T10:14:02.799Z,9.05
2023-02-23T10:16:45.981Z,8.27
2023-02-23T10:19:24.430Z,7.73
2023-02-23T10:21:58.468Z,7.39
2023-02-23T10:24:35.925Z,7.20
2023-02-23T10:27:05.692Z,7.51
2023-02-23T10:29:43.039Z,8.84
2023-02-23T10:32:20.257Z,9.35
2023-02-23T10:34:53.649Z,8.87
2023-02-23T10:37:27.607Z,8.42
2023-02-23T10:39:58.618Z,8.12
2023-02-23T10:42:34.374Z,7.91
2023-02-23T10:45:18.920Z,7.76
2023-02-23T10:47:51.322Z,7.66
2023-02-23T10:50:27.513Z,7.54
2023-02-23T10:53:00.597Z,7.42
2023-02-23T10:55:35.676Z,8.25
2023-02-23T10:58:11.292Z,9.57
2023-02-23T11:00:42.218Z,9.43
2023-02-23T11:03:27.837Z,8.90
2023-02-23T11:06:03.186Z,8.58
2023-02-23T11:08:35.493Z,8.42
2023-02-23T11:11:08.511Z,8.32
2023-02-23T11:13:43.270Z,8.26
2023-02-23T11:16:15.059Z,8.22
2023-02-23T11:19:00.530Z,8.19
2023-02-23T11:21:38.967Z,8.15
2023-02-23T11:24:19.602Z,8.12
2023-02-23T11:26:52.881Z,8.08
2023-02-23T11:29:22.368Z,8.07
2023-02-23T11:31:56.431Z,8.09
2023-02-23T11:34:31.826Z,8.11
2023-02-23T11:37:07.207Z,8.14
2023-02-23T11:39:39.232Z,8.19
2023-02-23T11:42:16.639Z,8.36
2023-02-23T11:44:51.198Z,9.66
2023-02-23T11:47:24.021Z,10.82
2023-02-23T11:49:55.803Z,10.49
2023-02-23T11:52:28.568Z,10.04
2023-02-23T11:55:00.632Z,9.75
2023-02-23T11:57:33.848Z,9.55
2023-02-23T12:00:11.498Z,9.39
2023-02-23T12:02:50.798Z,9.27
2023-02-23T12:05:23.429Z,9.24
2023-02-23T12:07:56.490Z,9.25
2023-02-23T12:10:29.374Z,9.26
2023-02-23T12:13:03.834Z,9.27
2023-02-23T12:15:38.932Z,9.27
2023-02-23T12:18:13.967Z,9.22
2023-02-23T12:20:47.527Z,9.18
2023-02-23T12:23:21.569Z,9.20
2023-02-23T12:25:50.823Z,9.17
2023-02-23T12:28:31.596Z,9.20
2023-02-23T12:31:04.463Z,9.21
2023-02-23T12:33:41.741Z,9.25
2023-02-23T12:36:21.143Z,9.26
2023-02-23T12:38:54.681Z,9.27
2023-02-23T12:41:38.328Z,9.29
2023-02-23T12:44:15.514Z,9.36
2023-02-23T12:46:49.515Z,9.42
2023-02-23T12:49:35.516Z,9.48
2023-02-23T12:52:11.813Z,9.55
2023-02-23T12:54:42.996Z,9.63
2023-02-23T12:57:24.373Z,9.70
2023-02-23T13:00:20.716Z,9.77
2023-02-23T13:02:59.344Z,9.85
2023-02-23T13:05:37.133Z,9.87
2023-02-23T13:08:13.969Z,9.89
2023-02-23T13:10:49.501Z,9.92
2023-02-23T13:13:27.814Z,9.91
2023-02-23T13:16:07.411Z,9.87
2023-02-23T13:18:41.327Z,9.85
2023-02-23T13:21:21.415Z,9.88
2023-02-23T13:24:04.511Z,9.92
2023-02-23T13:26:48.987Z,9.93
2023-02-23T13:29:35.533Z,9.99
2023-02-23T13:32:18.102Z,10.10
2023-02-23T13:35:01.120Z,10.17
2023-02-23T13:37:41.318Z,10.21
2023-02-23T13:40:25.303Z,10.24
2023-02-23T13:43:14.115Z,10.29
2023-02-23T13:45:58.040Z,10.31
2023-02-23T13:48:31.837Z,10.40
2023-02-23T13:51:00.984Z,10.50
2023-02-23T13:53:37.749Z,10.56
2023-02-23T13:56:10.050Z,10.62
2023-02-23T13:58:47.241Z,10.67
2023-02-23T14:01:27.633Z,10.67
2023-02-23T14:03:59.447Z,10.62
2023-02-23T14:06:31.464Z,10.57
2023-02-23T14:09:09.559Z,10.55
2023-02-23T14:11:44.777Z,10.57
2023-02-23T14:14:17.650Z,10.60
2023-02-23T14:17:08.881Z,10.60
2023-02-23T14:19:42.434Z,10.58
2023-02-23T14:22:20.744Z,10.60
2023-02-23T14:25:19.829Z,10.64
2023-02-23T14:28:00.724Z,10.61
2023-02-23T14:30:50.742Z,10.63
2023-02-23T14:33:37.364Z,10.59
2023-02-23T14:36:35.517Z,10.63
2023-02-23T14:39:09.665Z,10.59
2023-02-23T14:41:49.203Z,10.54
2023-02-23T14:44:32.379Z,10.47
2023-02-23T14:47:10.056Z,10.43
2023-02-23T14:49:46.814Z,10.36
2023-02-23T14:52:29.643Z,10.29
2023-02-23T14:55:16.073Z,10.21
2023-02-23T14:57:46.977Z,10.13
2023-02-23T15:00:28.179Z,10.06
2023-02-23T15:03:05.280Z,9.96
2023-02-23T15:05:38.467Z,9.88
2023-02-23T15:08:10.983Z,9.82
2023-02-23T15:10:44.052Z,9.76
2023-02-23T15:13:29.175Z,9.71
2023-02-23T15:16:07.366Z,9.68
2023-02-23T15:18:44.285Z,9.63
2023-02-23T15:21:22.858Z,9.60
2023-02-23T15:24:01.685Z,9.56
2023-02-23T15:26:43.286Z,9.52
2023-02-23T15:29:20.365Z,9.47
2023-02-23T15:31:58.572Z,9.41
2023-02-23T15:34:38.413Z,9.36
2023-02-23T15:37:25.197Z,9.31
2023-02-23T15:39:58.842Z,9.67
2023-02-23T15:42:33.313Z,11.08
2023-02-23T15:45:05.859Z,12.06
2023-02-23T15:47:38.101Z,12.73
2023-02-23T15:50:27.580Z,12.11
2023-02-23T15:53:13.952Z,11.27
2023-02-23T15:55:45.822Z,10.74
2023-02-23T15:58:22.059Z,10.36
2023-02-23T16:01:03.166Z,10.05
2023-02-23T16:03:52.736Z,9.80
2023-02-23T16:06:39.650Z,9.58
2023-02-23T16:09:27.563Z,9.39
2023-02-23T16:12:04.652Z,9.22
2023-02-23T16:14:45.503Z,9.08
2023-02-23T16:17:23.113Z,9.32
2023-02-23T16:20:11.677Z,10.75
2023-02-23T16:22:46.273Z,12.13
2023-02-23T16:25:23.568Z,12.74
2023-02-23T16:28:04.263Z,12.03
2023-02-23T16:30:49.111Z,11.18
2023-02-23T16:33:24.117Z,10.57
2023-02-23T16:35:55.977Z,10.17
2023-02-23T16:38:36.317Z,9.84
2023-02-23T16:41:07.635Z,9.57
2023-02-23T16:43:44.298Z,9.36
2023-02-23T16:46:15.705Z,9.18
2023-02-23T16:48:46.489Z,9.28
2023-02-23T16:51:24.511Z,10.61
2023-02-23T16:54:00.649Z,11.90
2023-02-23T16:56:32.611Z,12.52
2023-02-23T16:59:04.119Z,11.86
2023-02-23T17:01:35.184Z,11.06
2023-02-23T17:04:07.661Z,10.50
2023-02-23T17:06:38.917Z,10.08
2023-02-23T17:09:09.993Z,9.76
2023-02-23T17:11:45.922Z,9.48
2023-02-23T17:14:23.412Z,9.24
2023-02-23T17:16:55.170Z,9.33
2023-02-23T17:19:31.234Z,10.67
2023-02-23T17:22:17.517Z,12.01
2023-02-23T17:24:49.238Z,12.54
2023-02-23T17:27:19.703Z,11.83
2023-02-23T17:29:55.295Z,11.05
2023-02-23T17:32:26.255Z,10.49
2023-02-23T17:34:58.756Z,10.11
2023-02-23T17:37:29.575Z,9.80
2023-02-23T17:40:00.796Z,9.53
2023-02-23T17:42:34.247Z,9.29
2023-02-23T17:45:11.320Z,9.36
2023-02-23T17:47:51.058Z,10.74
2023-02-23T17:50:28.582Z,12.08
2023-02-23T17:53:03.372Z,12.67
2023-02-23T17:55:46.226Z,11.89
2023-02-23T17:58:17.235Z,10.96
2023-02-23T18:00:55.521Z,10.32
2023-02-23T18:03:32.401Z,9.81
2023-02-23T18:06:02.330Z,9.43
2023-02-23T18:08:33.645Z,9.51
2023-02-23T18:11:05.034Z,10.91
2023-02-23T18:13:46.207Z,11.99
2023-02-23T18:16:29.603Z,11.38
2023-02-23T18:19:05.497Z,10.39
2023-02-23T18:21:45.436Z,9.74
2023-02-23T18:24:25.139Z,10.34
2023-02-23T18:27:05.769Z,11.61
2023-02-23T18:29:37.759Z,12.26
2023-02-23T18:32:09.506Z,11.45
2023-02-23T18:34:41.037Z,10.50
2023-02-23T18:37:12.280Z,9.76
2023-02-23T18:39:43.737Z,9.43
2023-02-23T18:42:14.655Z,10.52
2023-02-23T18:44:45.635Z,11.67
2023-02-23T18:47:16.678Z,12.16
2023-02-23T18:49:48.498Z,11.33
2023-02-23T18:52:26.367Z,10.40
2023-02-23T18:54:58.020Z,9.69
2023-02-23T18:57:31.650Z,9.33
2023-02-23T19:00:01.261Z,10.34
2023-02-23T19:02:32.445Z,11.49
2023-02-23T19:05:14.854Z,12.09
2023-02-23T19:07:50.872Z,11.09
2023-02-23T19:10:26.607Z,9.99
2023-02-23T19:13:00.672Z,9.46
2023-02-23T19:15:32.581Z,10.25
2023-02-23T19:18:03.545Z,11.46
2023-02-23T19:20:36.312Z,11.41
2023-02-23T19:23:08.180Z,10.28
2023-02-23T19:25:39.268Z,9.38
2023-02-23T19:28:10.201Z,9.81
2023-02-23T19:30:50.562Z,11.06
2023-02-23T19:33:26.357Z,11.42
2023-02-23T19:36:01.289Z,10.28
2023-02-23T19:38:32.502Z,9.30
2023-02-23T19:41:05.830Z,9.48
2023-02-23T19:43:36.979Z,10.81
2023-02-23T19:46:08.983Z,11.40
2023-02-23T19:48:39.776Z,11.88
2023-02-23T19:51:13.697Z,10.99
2023-02-23T19:53:49.622Z,9.80
2023-02-23T19:56:21.084Z,8.89
2023-02-23T19:58:51.813Z,8.61
2023-02-23T20:01:25.521Z,9.73
2023-02-23T20:04:02.418Z,10.74
2023-02-23T20:06:36.710Z,11.35
2023-02-23T20:09:09.245Z,11.24
2023-02-23T20:11:41.053Z,9.99
2023-02-23T20:14:12.646Z,9.03
2023-02-23T20:16:43.778Z,8.67
2023-02-23T20:19:14.372Z,9.72
2023-02-23T20:21:46.160Z,10.87
2023-02-23T20:24:17.480Z,11.57
2023-02-23T20:26:48.706Z,12.05
2023-02-23T20:29:19.320Z,11.83
2023-02-23T20:31:52.058Z,10.74
2023-02-23T20:34:24.516Z,9.78
2023-02-23T20:36:56.782Z,9.08
2023-02-23T20:39:27.921Z,9.40
2023-02-23T20:42:03.345Z,10.50
2023-02-23T20:44:38.204Z,11.36
2023-02-23T20:47:10.414Z,11.87
2023-02-23T20:49:41.419Z,11.65
2023-02-23T20:52:13.136Z,10.52
2023-02-23T20:54:43.589Z,9.55
2023-02-23T20:57:19.635Z,8.89
2023-02-23T20:59:55.183Z,9.47
2023-02-23T21:02:27.035Z,10.78
2023-02-23T21:04:58.098Z,11.56
2023-02-23T21:07:29.933Z,10.83
2023-02-23T21:10:00.823Z,9.69
2023-02-23T21:12:32.249Z,9.48
2023-02-23T21:15:04.828Z,10.51
2023-02-23T21:17:37.024Z,11.33
2023-02-23T21:20:13.100Z,11.80
2023-02-23T21:22:53.864Z,11.53
2023-02-23T21:25:34.218Z,10.35
2023-02-23T21:28:05.864Z,9.45
2023-02-23T21:30:36.440Z,8.83
2023-02-23T21:33:12.717Z,8.61
2023-02-23T21:35:43.739Z,9.78
2023-02-23T21:38:14.794Z,10.91
2023-02-23T21:40:45.512Z,11.63
2023-02-23T21:43:17.174Z,11.74
2023-02-23T21:45:48.003Z,10.71
2023-02-23T21:48:18.854Z,9.70
2023-02-23T21:50:49.745Z,8.99
2023-02-23T21:53:20.590Z,8.72
2023-02-23T21:55:51.555Z,9.82
2023-02-23T21:58:23.154Z,10.96
2023-02-23T22:00:54.250Z,11.71
2023-02-23T22:03:26.312Z,11.95
2023-02-23T22:05:57.039Z,11.04
2023-02-23T22:08:27.988Z,10.01
2023-02-23T22:11:00.249Z,9.23
2023-02-23T22:13:31.499Z,8.65
2023-02-23T22:16:02.587Z,8.53
2023-02-23T22:18:33.810Z,9.75
2023-02-23T22:21:05.094Z,10.93
2023-02-23T22:23:36.683Z,11.72
2023-02-23T22:26:08.229Z,12.28
2023-02-23T22:28:39.481Z,12.25
2023-02-23T22:31:11.835Z,11.13
2023-02-23T22:33:44.426Z,10.03
2023-02-23T22:36:17.882Z,9.24
2023-02-23T22:38:49.284Z,8.91
2023-02-23T22:41:20.626Z,9.95
2023-02-23T22:43:52.182Z,11.02
2023-02-23T22:46:23.436Z,11.70
2023-02-23T22:48:54.758Z,12.17
2023-02-23T22:51:25.696Z,12.21
2023-02-23T22:53:56.837Z,11.10
2023-02-23T22:56:28.105Z,9.95
2023-02-23T22:59:05.106Z,9.19
2023-02-23T23:01:36.249Z,9.98
2023-02-23T23:04:10.820Z,11.05
2023-02-23T23:06:43.503Z,11.67
2023-02-23T23:09:16.798Z,11.89
2023-02-23T23:11:50.868Z,10.93
2023-02-23T23:14:23.564Z,9.87
2023-02-23T23:16:54.778Z,9.10
2023-02-23T23:19:26.189Z,8.81
2023-02-23T23:22:00.541Z,9.95
2023-02-23T23:24:31.538Z,11.00
2023-02-23T23:27:08.423Z,11.60
2023-02-23T23:29:39.558Z,12.09
2023-02-23T23:32:10.414Z,12.16
2023-02-23T23:34:42.054Z,11.13
2023-02-23T23:37:14.012Z,10.08
2023-02-23T23:39:45.589Z,9.30
2023-02-23T23:42:16.238Z,9.70
2023-02-23T23:44:47.444Z,10.86
2023-02-23T23:47:18.892Z,11.75
2023-02-23T23:49:50.401Z,11.61
2023-02-23T23:52:21.592Z,10.42
2023-02-23T23:54:52.949Z,9.37
2023-02-23T23:57:24.243Z,8.90
2023-02-23T23:59:56.850Z,9.87
